Terminal Aerodrome Forecast
Issued by NWS Springfield, MO

Home | Current Version | Previous Version | Text Only | Print | Product List | Glossary On
Versions: 1 2 3 4 5 6 7 8 9 10 11 12 13 14 15 16 17 18 19 20 21 22
000
FTUS43 KSGF 181400 AAA
TAFSGF
TAF AMD
KSGF 181416Z 1814/1912 15007KT P6SM VCTS SCT045CB OVC060
      TEMPO 1814/1818 5SM -TSRA SCT025 OVC045CB
     FM181900 16008KT P6SM VCSH BKN035 OVC060
     FM190000 15005KT P6SM -SHRA VCTS OVC050CB=

USA.gov is the U.S. government's official web portal to all federal, state and local government web resources and services.